Hunnewell, Missouri
Current Conditions -  °F | °C
As of 3:15 AM on Friday 31 Oct 2014 (Local Time) from KHAE Reporting Station
Overcast Overcast  
Wind Chill:   Ceiling: 10000
Heat Index:   Visibility: 10mi
Dew Point:   Wind: 14mph
Humidity: 66%   Direction: 340°NNW
Pressure: 30.16"   Gusts: 21mph
Location:  39.67°N, 91.86°W
Report Text: KHAE 310815Z AUTO 34012G18KT 10SM SCT060 SCT070 OVC100 09/03 A3016 RMK AO2
Loading
Personal Weather Stations






























Interactive Weather Map
Tropical Storm Tracking
New forecast layout! Learn more

10-Day Weather Forecast

Advertisements
Track Severe Weather on mobile